Portada
METAR-TAF:

METAR-TAF

Aeropuertos :

Aeropuerto Internacional Chhatrapati Shivaji

Bombay, India

latitud: 19-07N, longitud: 072-51E, altitud: 8 m

Observación

El informe se hizo hace 43 minutos, a las 03:30 UTC
Viento 6 kt del este
Temperatura 30°C
Humedad 75%
Presión 1014 hPa
Visibilidad: 1700 m
calima

METAR: VABB 220330Z 09006KT 1700 HZ NSC 30/25 Q1014 NOSIG

Hora: 09:43 (04:13 UTC)

Pronóstico

El informe se hizo hace 2 horas y 13 minutos, a las 02:00 UTC
Pronóstico válido del 22 a las 03 UTC al 22 a las 12 UTC
Viento 5 kt del este-sureste
Visibilidad: 3000 m
calima, humo
Evolucionando progresivamente
del 22 a las 08 UTC al 22 a las 10 UTC
Viento 8 kt del oeste
Evolucionando progresivamente
del 22 a las 10 UTC al 22 a las 12 UTC
Visibilidad: 4000 m
calima, humo

TAF: VABB 220200Z 2203/2212 12005KT 3000 HZ FU BECMG 2208/2210 27008KT BECMG 2210/2212 4000 HZ FU

Observaciones y pronósticos meteorológicos de más de 4000 aeropuertos (mensajes METAR y TAF).

Los puntos amarillos y rojos representan las estaciones disponibles.

Ponga el ratón en el punto deseado para ver el nombre de la estación.

Haga clic para ver las observaciones y los pronósticos meteorológicos.

Para cambiar el mapa : haga clic en los botones verdes con una cruz de color negro para hacer un zoom, en el botón verde con un guión para alejar o en las flechas verdes para mapas adyacentes.


METAR-TAF: